createdAt,value
2019-03-30T00:01:52.009Z,100511.66
2019-03-30T00:04:23.335Z,100508.48
2019-03-30T00:06:54.498Z,100504.27
2019-03-30T00:09:25.816Z,100495.28
2019-03-30T00:11:58.001Z,100496.50
2019-03-30T00:14:29.315Z,100490.89
2019-03-30T00:17:00.425Z,100502.70
2019-03-30T00:19:35.069Z,100502.55
2019-03-30T00:22:04.580Z,100498.62
2019-03-30T00:24:36.311Z,100497.93
2019-03-30T00:27:07.619Z,100489.77
2019-03-30T00:29:38.822Z,100491.09
2019-03-30T00:32:10.349Z,100494.53
2019-03-30T00:34:41.505Z,100492.19
2019-03-30T00:37:12.901Z,100490.98
2019-03-30T00:39:44.003Z,100491.75
2019-03-30T00:42:15.204Z,100497.23
2019-03-30T00:44:46.376Z,100496.31
2019-03-30T00:47:17.559Z,100490.34
2019-03-30T00:49:50.125Z,100492.33
2019-03-30T00:52:21.551Z,100503.96
2019-03-30T00:54:52.851Z,100491.55
2019-03-30T00:57:23.995Z,100495.18
2019-03-30T00:59:55.170Z,100485.26
2019-03-30T01:02:26.364Z,100484.77
2019-03-30T01:04:57.534Z,100482.15
2019-03-30T01:07:28.790Z,100481.88
2019-03-30T01:09:59.985Z,100481.33
2019-03-30T01:12:31.147Z,100477.30
2019-03-30T01:15:02.389Z,100481.48
2019-03-30T01:17:33.590Z,100482.88
2019-03-30T01:20:05.448Z,100481.84
2019-03-30T01:22:36.713Z,100473.80
2019-03-30T01:25:08.828Z,100470.67
2019-03-30T01:27:40.110Z,100467.31
2019-03-30T01:30:22.420Z,100465.13
2019-03-30T01:32:44.799Z,100468.50
2019-03-30T01:35:16.941Z,100464.91
2019-03-30T01:37:48.434Z,100460.58
2019-03-30T01:40:19.704Z,100464.52
2019-03-30T01:42:50.821Z,100464.23
2019-03-30T01:45:21.968Z,100462.52
2019-03-30T01:47:53.234Z,100456.15
2019-03-30T01:50:24.449Z,100454.95
2019-03-30T01:52:55.769Z,100450.18
2019-03-30T01:55:26.928Z,100450.27
2019-03-30T01:57:58.044Z,100452.09
2019-03-30T02:00:29.230Z,100453.24
2019-03-30T02:03:00.570Z,100451.19
2019-03-30T02:05:31.719Z,100453.17
2019-03-30T02:08:02.880Z,100451.33
2019-03-30T02:10:44.180Z,100456.43
2019-03-30T02:13:16.134Z,100465.27
2019-03-30T02:15:47.378Z,100453.95
2019-03-30T02:18:18.628Z,100454.44
2019-03-30T02:20:50.331Z,100454.41
2019-03-30T02:23:21.744Z,100449.22
2019-03-30T02:25:53.183Z,100448.31
2019-03-30T02:28:24.450Z,100445.12
2019-03-30T02:30:55.661Z,100451.23
2019-03-30T02:33:26.818Z,100452.24
2019-03-30T02:35:57.980Z,100442.73
2019-03-30T02:38:29.501Z,100437.70
2019-03-30T02:41:00.679Z,100444.44
2019-03-30T02:43:31.907Z,100444.48
2019-03-30T02:46:03.120Z,100441.13
2019-03-30T02:48:35.092Z,100439.17
2019-03-30T02:51:06.596Z,100445.44
2019-03-30T02:53:37.755Z,100436.13
2019-03-30T02:56:09.080Z,100438.19
2019-03-30T02:58:40.196Z,100428.42
2019-03-30T03:01:11.709Z,100427.71
2019-03-30T03:03:43.196Z,100425.30
2019-03-30T03:06:14.649Z,100422.13
2019-03-30T03:08:45.718Z,100417.66
2019-03-30T03:11:16.999Z,100419.33
2019-03-30T03:13:48.360Z,100411.53
2019-03-30T03:16:19.547Z,100410.66
2019-03-30T03:18:50.784Z,100406.37
2019-03-30T03:21:22.193Z,100407.75
2019-03-30T03:23:53.373Z,100399.58
2019-03-30T03:26:24.602Z,100398.75
2019-03-30T03:28:55.980Z,100404.36
2019-03-30T03:31:27.571Z,100401.19
2019-03-30T03:33:59.050Z,100396.86
2019-03-30T03:36:30.311Z,100393.44
2019-03-30T03:39:01.540Z,100394.13
2019-03-30T03:41:32.660Z,100389.45
2019-03-30T03:44:03.895Z,100383.34
2019-03-30T03:46:35.180Z,100382.58
2019-03-30T03:49:06.515Z,100385.56
2019-03-30T03:51:38.072Z,100381.06
2019-03-30T03:54:09.409Z,100376.22
2019-03-30T03:56:41.673Z,100378.47
2019-03-30T03:59:14.409Z,100382.24
2019-03-30T04:01:47.005Z,100378.10
2019-03-30T04:04:19.731Z,100376.00
2019-03-30T04:06:53.379Z,100380.93
2019-03-30T04:09:27.680Z,100375.59
2019-03-30T04:12:01.040Z,100374.42
2019-03-30T04:14:34.439Z,100375.28
2019-03-30T04:17:05.655Z,100382.31
2019-03-30T04:19:36.814Z,100377.45
2019-03-30T04:22:08.080Z,100376.43
2019-03-30T04:24:39.429Z,100368.38
2019-03-30T04:27:10.686Z,100369.89
2019-03-30T04:29:41.846Z,100370.70
2019-03-30T04:32:13.045Z,100373.54
2019-03-30T04:34:44.199Z,100375.77
2019-03-30T04:37:15.401Z,100376.59
2019-03-30T04:39:46.919Z,100377.73
2019-03-30T04:42:18.324Z,100374.12
2019-03-30T04:44:49.614Z,100376.53
2019-03-30T04:47:21.014Z,100367.17
2019-03-30T04:49:52.301Z,100367.27
2019-03-30T04:52:23.685Z,100367.74
2019-03-30T04:54:54.999Z,100365.84
2019-03-30T04:57:26.794Z,100369.89
2019-03-30T04:59:58.324Z,100361.50
2019-03-30T05:02:29.612Z,100366.36
2019-03-30T05:05:01.570Z,100367.17
2019-03-30T05:07:32.716Z,100363.69
2019-03-30T05:10:04.488Z,100364.56
2019-03-30T05:12:36.114Z,100361.98
2019-03-30T05:15:07.932Z,100363.38
2019-03-30T05:17:47.370Z,100360.14
2019-03-30T05:20:12.510Z,100358.72
2019-03-30T05:22:43.764Z,100353.28
2019-03-30T05:25:15.030Z,100358.02
2019-03-30T05:27:46.359Z,100356.03
2019-03-30T05:30:17.774Z,100359.72
2019-03-30T05:32:49.585Z,100367.77
2019-03-30T05:35:21.007Z,100356.23
2019-03-30T05:37:52.495Z,100360.03
2019-03-30T05:40:24.112Z,100365.02
2019-03-30T05:42:55.634Z,100367.11
2019-03-30T05:45:27.045Z,100373.47
2019-03-30T05:47:58.524Z,100374.27
2019-03-30T05:50:30.292Z,100370.98
2019-03-30T05:53:01.630Z,100370.53
2019-03-30T05:55:32.862Z,100377.66
2019-03-30T05:58:04.165Z,100377.67
2019-03-30T06:00:35.793Z,100372.77
2019-03-30T06:03:07.189Z,100374.42
2019-03-30T06:05:38.584Z,100374.72
2019-03-30T06:08:10.155Z,100383.84
2019-03-30T06:10:41.363Z,100381.95
2019-03-30T06:13:12.871Z,100386.64
2019-03-30T06:15:44.463Z,100377.19
2019-03-30T06:18:15.724Z,100384.41
2019-03-30T06:20:47.114Z,100380.53
2019-03-30T06:23:18.360Z,100377.73
2019-03-30T06:25:49.732Z,100376.44
2019-03-30T06:28:20.971Z,100372.45
2019-03-30T06:30:52.230Z,100370.22
2019-03-30T06:33:23.447Z,100376.84
2019-03-30T06:35:54.732Z,100381.11
2019-03-30T06:38:26.008Z,100383.06
2019-03-30T06:40:57.323Z,100385.24
2019-03-30T06:43:28.704Z,100386.78
2019-03-30T06:45:59.785Z,100381.11
2019-03-30T06:48:31.018Z,100379.81
2019-03-30T06:51:02.210Z,100375.33
2019-03-30T06:53:33.408Z,100378.64
2019-03-30T06:56:04.630Z,100371.63
2019-03-30T06:58:35.808Z,100366.45
2019-03-30T07:01:07.458Z,100372.16
2019-03-30T07:03:38.908Z,100362.58
2019-03-30T07:06:10.335Z,100371.13
2019-03-30T07:08:44.084Z,100376.86
2019-03-30T07:11:21.429Z,100370.45
2019-03-30T07:13:49.274Z,100374.00
2019-03-30T07:16:20.606Z,100369.83
2019-03-30T07:18:53.863Z,100372.95
2019-03-30T07:21:25.064Z,100380.13
2019-03-30T07:23:56.178Z,100375.76
2019-03-30T07:26:27.420Z,100378.95
2019-03-30T07:28:58.567Z,100372.95
2019-03-30T07:31:29.894Z,100368.80
2019-03-30T07:34:01.158Z,100369.34
2019-03-30T07:36:32.438Z,100368.93
2019-03-30T07:39:04.448Z,100369.49
2019-03-30T07:41:35.679Z,100369.66
2019-03-30T07:44:08.708Z,100366.67
2019-03-30T07:46:39.917Z,100368.91
2019-03-30T07:49:11.134Z,100378.96
2019-03-30T07:51:42.278Z,100371.05
2019-03-30T07:54:13.541Z,100372.25
2019-03-30T07:56:44.711Z,100366.07
2019-03-30T07:59:15.991Z,100369.80
2019-03-30T08:01:47.350Z,100372.39
2019-03-30T08:04:18.484Z,100369.89
2019-03-30T08:06:49.770Z,100375.34
2019-03-30T08:09:21.449Z,100374.84
2019-03-30T08:11:52.809Z,100372.26
2019-03-30T08:14:24.129Z,100373.53
2019-03-30T08:16:55.498Z,100364.39
2019-03-30T08:19:26.761Z,100365.30
2019-03-30T08:21:58.054Z,100366.05
2019-03-30T08:24:29.220Z,100366.83
2019-03-30T08:27:00.539Z,100358.30
2019-03-30T08:29:31.875Z,100354.46
2019-03-30T08:32:03.015Z,100336.75
2019-03-30T08:34:34.253Z,100342.97
2019-03-30T08:37:05.684Z,100336.22
2019-03-30T08:39:36.745Z,100338.00
2019-03-30T08:42:08.030Z,100337.66
2019-03-30T08:44:39.234Z,100338.71
2019-03-30T08:47:10.384Z,100335.57
2019-03-30T08:49:41.488Z,100331.86
2019-03-30T08:52:12.764Z,100330.34
2019-03-30T08:54:44.055Z,100323.19
2019-03-30T08:57:15.313Z,100325.41
2019-03-30T08:59:46.638Z,100324.48
2019-03-30T09:02:17.859Z,100319.85
2019-03-30T09:04:49.180Z,100321.51
2019-03-30T09:07:20.491Z,100321.19
2019-03-30T09:09:52.084Z,100311.87
2019-03-30T09:12:23.434Z,100302.95
2019-03-30T09:14:54.710Z,100307.02
2019-03-30T09:17:26.024Z,100301.81
2019-03-30T09:19:57.204Z,100309.09
2019-03-30T09:22:28.559Z,100300.91
2019-03-30T09:24:59.864Z,100301.13
2019-03-30T09:27:31.221Z,100301.56
2019-03-30T09:30:02.504Z,100296.85
2019-03-30T09:32:33.664Z,100285.32
2019-03-30T09:35:05.281Z,100288.39
2019-03-30T09:37:36.643Z,100296.44
2019-03-30T09:40:08.848Z,100294.47
2019-03-30T09:42:40.414Z,100299.00
2019-03-30T09:45:11.964Z,100305.16
2019-03-30T09:47:43.203Z,100303.25
2019-03-30T09:50:14.898Z,100299.06
2019-03-30T09:52:46.232Z,100293.14
2019-03-30T09:55:17.540Z,100296.73
2019-03-30T09:57:48.944Z,100284.20
2019-03-30T10:00:20.420Z,100291.86
2019-03-30T10:02:51.678Z,100282.55
2019-03-30T10:05:22.975Z,100273.88
2019-03-30T10:07:54.303Z,100269.03
2019-03-30T10:10:25.843Z,100263.27
2019-03-30T10:12:57.202Z,100268.03
2019-03-30T10:15:28.468Z,100263.78
2019-03-30T10:17:59.750Z,100265.22
2019-03-30T10:20:31.007Z,100265.62
2019-03-30T10:23:02.360Z,100258.55
2019-03-30T10:25:33.723Z,100251.66
2019-03-30T10:28:05.017Z,100249.67
2019-03-30T10:30:36.410Z,100247.47
2019-03-30T10:33:07.568Z,100237.81
2019-03-30T10:35:39.010Z,100241.30
2019-03-30T10:38:10.305Z,100235.98
2019-03-30T10:40:41.505Z,100230.84
2019-03-30T10:43:12.715Z,100225.72
2019-03-30T10:45:43.940Z,100224.94
2019-03-30T10:48:15.238Z,100222.06
2019-03-30T10:50:46.451Z,100216.28
2019-03-30T10:53:17.824Z,100214.59
2019-03-30T10:55:49.398Z,100212.72
2019-03-30T10:58:20.697Z,100215.81
2019-03-30T11:00:51.959Z,100215.49
2019-03-30T11:03:23.185Z,100201.37
2019-03-30T11:05:54.563Z,100205.29
2019-03-30T11:08:25.728Z,100198.46
2019-03-30T11:10:56.850Z,100193.48
2019-03-30T11:13:28.148Z,100190.88
2019-03-30T11:15:59.337Z,100188.66
2019-03-30T11:18:30.541Z,100184.98
2019-03-30T11:21:01.885Z,100179.29
2019-03-30T11:23:33.354Z,100179.02
2019-03-30T11:26:04.638Z,100167.19
2019-03-30T11:28:35.899Z,100170.17
2019-03-30T11:31:07.175Z,100169.30
2019-03-30T11:33:38.423Z,100166.81
2019-03-30T11:36:09.794Z,100161.89
2019-03-30T11:38:41.157Z,100159.98
2019-03-30T11:41:12.429Z,100153.59
2019-03-30T11:43:43.643Z,100153.52
2019-03-30T11:46:14.883Z,100152.15
2019-03-30T11:48:46.329Z,100147.45
2019-03-30T11:51:17.718Z,100138.97
2019-03-30T11:53:48.950Z,100137.73
2019-03-30T11:56:20.207Z,100128.48
2019-03-30T11:58:51.739Z,100121.38
2019-03-30T12:01:23.277Z,100122.48
2019-03-30T12:03:54.553Z,100116.27
2019-03-30T12:06:25.936Z,100108.13
2019-03-30T12:08:58.427Z,100106.95
2019-03-30T12:11:30.113Z,100100.25
2019-03-30T12:14:01.629Z,100081.98
2019-03-30T12:16:32.963Z,100074.14
2019-03-30T12:19:04.518Z,100077.55
2019-03-30T12:21:35.790Z,100071.00
2019-03-30T12:24:07.085Z,100068.55
2019-03-30T12:26:38.413Z,100060.48
2019-03-30T12:29:09.766Z,100057.33
2019-03-30T12:31:40.864Z,100053.76
2019-03-30T12:34:13.189Z,100047.89
2019-03-30T12:36:44.564Z,100049.31
2019-03-30T12:39:15.755Z,100039.97
2019-03-30T12:41:47.196Z,100037.28
2019-03-30T12:44:18.538Z,100034.30
2019-03-30T12:46:49.850Z,100038.39
2019-03-30T12:49:23.226Z,100040.84
2019-03-30T12:51:54.440Z,100025.80
2019-03-30T12:54:25.542Z,100025.43
2019-03-30T12:56:57.084Z,100016.56
2019-03-30T12:59:30.252Z,100019.81
2019-03-30T13:02:01.448Z,100021.17
2019-03-30T13:04:32.614Z,100019.64
2019-03-30T13:07:03.810Z,100008.17
2019-03-30T13:09:35.308Z,100001.85
2019-03-30T13:12:06.704Z,100001.48
2019-03-30T13:14:37.784Z,99995.56
2019-03-30T13:17:09.144Z,99991.77
2019-03-30T13:19:40.688Z,99987.88
2019-03-30T13:22:12.105Z,99986.74
2019-03-30T13:24:43.355Z,99982.94
2019-03-30T13:27:15.242Z,99965.08
2019-03-30T13:29:46.363Z,99970.22
2019-03-30T13:32:17.779Z,99971.53
2019-03-30T13:34:49.055Z,99969.91
2019-03-30T13:37:22.257Z,99964.06
2019-03-30T13:39:53.365Z,99967.69
2019-03-30T13:42:24.480Z,99955.84
2019-03-30T13:44:55.678Z,99960.73
2019-03-30T13:47:27.017Z,99950.05
2019-03-30T13:49:58.625Z,99954.17
2019-03-30T13:52:29.782Z,99952.52
2019-03-30T13:55:01.041Z,99947.61
2019-03-30T13:57:32.168Z,99943.11
2019-03-30T14:00:03.411Z,99944.78
2019-03-30T14:02:34.534Z,99934.03
2019-03-30T14:05:06.710Z,99933.94
2019-03-30T14:07:38.074Z,99934.27
2019-03-30T14:10:10.688Z,99932.87
2019-03-30T14:12:41.931Z,99931.82
2019-03-30T14:15:13.308Z,99926.66
2019-03-30T14:17:44.516Z,99924.45
2019-03-30T14:20:15.929Z,99916.84
2019-03-30T14:22:47.098Z,99921.42
2019-03-30T14:25:18.651Z,99922.08
2019-03-30T14:27:49.832Z,99911.45
2019-03-30T14:30:21.171Z,99908.73
2019-03-30T14:32:52.466Z,99902.22
2019-03-30T14:35:23.601Z,99898.23
2019-03-30T14:37:55.776Z,99893.98
2019-03-30T14:40:27.094Z,99893.85
2019-03-30T14:42:58.470Z,99889.79
2019-03-30T14:45:29.689Z,99889.91
2019-03-30T14:48:00.985Z,99879.71
2019-03-30T14:50:32.259Z,99877.81
2019-03-30T14:53:03.442Z,99880.16
2019-03-30T14:55:34.833Z,99867.38
2019-03-30T14:58:06.104Z,99867.75
2019-03-30T15:00:37.576Z,99860.48
2019-03-30T15:03:09.119Z,99861.73
2019-03-30T15:05:40.340Z,99853.31
2019-03-30T15:08:11.668Z,99855.41
2019-03-30T15:10:42.917Z,99842.60
2019-03-30T15:13:14.271Z,99839.86
2019-03-30T15:15:45.674Z,99834.08
2019-03-30T15:18:17.019Z,99827.02
2019-03-30T15:20:48.378Z,99828.53
2019-03-30T15:23:19.590Z,99825.48
2019-03-30T15:25:50.804Z,99823.31
2019-03-30T15:28:22.034Z,99820.02
2019-03-30T15:30:53.336Z,99821.50
2019-03-30T15:33:24.537Z,99811.20
2019-03-30T15:35:55.683Z,99810.66
2019-03-30T15:38:26.798Z,99806.84
2019-03-30T15:40:57.905Z,99799.55
2019-03-30T15:43:38.247Z,99798.64
2019-03-30T15:46:02.165Z,99795.87
2019-03-30T15:48:33.390Z,99797.04
2019-03-30T15:51:04.762Z,99790.91
2019-03-30T15:53:36.228Z,99787.25
2019-03-30T15:56:07.581Z,99789.19
2019-03-30T15:58:39.839Z,99777.72
2019-03-30T16:01:11.274Z,99773.30
2019-03-30T16:03:42.462Z,99779.42
2019-03-30T16:06:13.727Z,99770.72
2019-03-30T16:08:44.908Z,99764.42
2019-03-30T16:11:16.213Z,99761.45
2019-03-30T16:13:47.512Z,99757.53
2019-03-30T16:16:18.800Z,99754.75
2019-03-30T16:18:50.272Z,99747.91
2019-03-30T16:21:21.597Z,99747.81
2019-03-30T16:23:52.895Z,99745.18
2019-03-30T16:26:24.259Z,99742.75
2019-03-30T16:28:55.380Z,99746.66
2019-03-30T16:31:27.144Z,99744.86
2019-03-30T16:33:58.439Z,99744.48
2019-03-30T16:36:29.699Z,99742.48
2019-03-30T16:39:01.042Z,99743.16
2019-03-30T16:41:32.124Z,99739.88
2019-03-30T16:44:03.474Z,99738.44
2019-03-30T16:46:34.599Z,99730.98
2019-03-30T16:49:05.768Z,99729.67
2019-03-30T16:51:36.886Z,99730.89
2019-03-30T16:54:08.360Z,99733.95
2019-03-30T16:56:39.508Z,99727.64
2019-03-30T16:59:13.737Z,99723.47
2019-03-30T17:01:43.899Z,99721.29
2019-03-30T17:04:15.058Z,99721.16
2019-03-30T17:06:46.230Z,99718.37
2019-03-30T17:09:17.362Z,99723.39
2019-03-30T17:11:48.515Z,99726.33
2019-03-30T17:14:19.738Z,99730.92
2019-03-30T17:16:50.887Z,99730.98
2019-03-30T17:19:22.038Z,99726.08
2019-03-30T17:21:53.209Z,99726.45
2019-03-30T17:24:24.389Z,99728.41
2019-03-30T17:26:55.508Z,99726.95
2019-03-30T17:29:26.790Z,99736.39
2019-03-30T17:31:57.988Z,99730.00
2019-03-30T17:34:29.604Z,99728.44
2019-03-30T17:37:00.790Z,99736.25
2019-03-30T17:39:31.970Z,99734.91
2019-03-30T17:42:03.160Z,99737.18
2019-03-30T17:44:34.636Z,99734.36
2019-03-30T17:47:05.874Z,99737.16
2019-03-30T17:49:37.067Z,99739.20
2019-03-30T17:52:08.491Z,99730.98
2019-03-30T17:54:40.087Z,99734.66
2019-03-30T17:57:11.574Z,99733.73
2019-03-30T17:59:42.695Z,99729.16
2019-03-30T18:02:13.908Z,99729.00
2019-03-30T18:04:44.974Z,99726.87
2019-03-30T18:07:16.235Z,99725.27
2019-03-30T18:09:47.419Z,99726.14
2019-03-30T18:12:20.439Z,99725.91
2019-03-30T18:14:51.928Z,99727.36
2019-03-30T18:17:23.224Z,99727.44
2019-03-30T18:19:56.154Z,99730.12
2019-03-30T18:22:27.485Z,99727.36
2019-03-30T18:24:58.683Z,99726.37
2019-03-30T18:27:30.025Z,99723.70
2019-03-30T18:30:04.699Z,99725.98
2019-03-30T18:32:36.495Z,99728.42
2019-03-30T18:35:13.034Z,99727.28
2019-03-30T18:37:57.430Z,99725.91
2019-03-30T18:40:32.755Z,99728.15
2019-03-30T18:43:07.034Z,99732.67
2019-03-30T18:45:38.620Z,99729.05
2019-03-30T18:48:19.686Z,99729.94
2019-03-30T18:50:53.974Z,99724.52
2019-03-30T18:53:27.679Z,99724.31
2019-03-30T18:55:59.062Z,99729.09
2019-03-30T18:58:41.599Z,99723.31
2019-03-30T19:01:06.370Z,99722.70
2019-03-30T19:03:41.836Z,99718.67
2019-03-30T19:06:22.931Z,99724.06
2019-03-30T19:08:55.448Z,99721.47
2019-03-30T19:11:28.939Z,99718.85
2019-03-30T19:14:02.477Z,99716.80
2019-03-30T19:16:33.800Z,99706.17
2019-03-30T19:19:05.540Z,99704.28
2019-03-30T19:21:37.159Z,99701.29
2019-03-30T19:24:09.565Z,99701.02
2019-03-30T19:26:48.245Z,99699.77
2019-03-30T19:29:19.545Z,99705.88
2019-03-30T19:31:55.005Z,99710.25
2019-03-30T19:34:26.462Z,99703.90
2019-03-30T19:37:01.358Z,99708.47
2019-03-30T19:39:33.157Z,99708.21
2019-03-30T19:42:05.694Z,99705.95
2019-03-30T19:44:48.735Z,99700.15
2019-03-30T19:47:22.474Z,99703.37
2019-03-30T19:49:58.580Z,99710.61
2019-03-30T19:52:39.863Z,99708.59
2019-03-30T19:55:05.159Z,99711.19
2019-03-30T19:57:44.644Z,99710.50
2019-03-30T20:00:22.640Z,99714.96
2019-03-30T20:02:58.529Z,99719.09
2019-03-30T20:05:33.485Z,99716.31
2019-03-30T20:08:13.113Z,99719.03
2019-03-30T20:10:56.319Z,99714.92
2019-03-30T20:13:30.345Z,99719.51
2019-03-30T20:16:04.539Z,99720.80
2019-03-30T20:18:37.134Z,99719.99
2019-03-30T20:21:18.239Z,99721.86
2019-03-30T20:23:50.865Z,99723.95
2019-03-30T20:26:23.813Z,99724.19
2019-03-30T20:29:01.968Z,99719.94
2019-03-30T20:31:38.154Z,99718.33
2019-03-30T20:34:10.237Z,99715.03
2019-03-30T20:36:44.039Z,99718.45
2019-03-30T20:39:16.384Z,99712.55
2019-03-30T20:41:49.769Z,99712.32
2019-03-30T20:44:27.144Z,99713.80
2019-03-30T20:47:02.176Z,99716.38
2019-03-30T20:49:37.036Z,99714.74
2019-03-30T20:52:23.229Z,99719.80
2019-03-30T20:54:55.100Z,99711.59
2019-03-30T20:57:27.308Z,99716.82
2019-03-30T21:00:02.804Z,99714.88
2019-03-30T21:02:41.175Z,99719.58
2019-03-30T21:05:18.016Z,99713.38
2019-03-30T21:07:50.574Z,99711.78
2019-03-30T21:10:25.357Z,99714.73
2019-03-30T21:12:56.614Z,99711.96
2019-03-30T21:15:27.979Z,99706.64
2019-03-30T21:18:09.258Z,99700.47
2019-03-30T21:20:47.458Z,99700.66
2019-03-30T21:23:20.319Z,99698.84
2019-03-30T21:25:55.454Z,99697.34
2019-03-30T21:28:29.397Z,99699.41
2019-03-30T21:31:01.189Z,99692.39
2019-03-30T21:33:38.619Z,99697.59
2019-03-30T21:36:09.854Z,99696.31
2019-03-30T21:38:47.379Z,99693.36
2019-03-30T21:41:21.324Z,99692.72
2019-03-30T21:43:55.654Z,99697.11
2019-03-30T21:46:28.604Z,99696.39
2019-03-30T21:48:59.850Z,99695.11
2019-03-30T21:51:31.070Z,99694.58
2019-03-30T21:54:02.391Z,99689.76
2019-03-30T21:56:35.098Z,99691.17
2019-03-30T21:59:06.494Z,99689.11
2019-03-30T22:01:37.669Z,99697.56
2019-03-30T22:04:08.951Z,99692.95
2019-03-30T22:06:40.229Z,99687.64
2019-03-30T22:09:12.219Z,99691.80
2019-03-30T22:11:43.386Z,99691.66
2019-03-30T22:14:14.718Z,99686.48
2019-03-30T22:16:46.014Z,99688.61
2019-03-30T22:19:17.208Z,99683.44
2019-03-30T22:21:48.432Z,99689.16
2019-03-30T22:24:19.595Z,99684.86
2019-03-30T22:26:50.814Z,99683.13
2019-03-30T22:29:22.065Z,99687.53
2019-03-30T22:31:53.198Z,99687.59
2019-03-30T22:34:24.488Z,99681.35
2019-03-30T22:36:55.605Z,99680.94
2019-03-30T22:39:26.963Z,99679.44
2019-03-30T22:41:58.178Z,99673.48
2019-03-30T22:44:29.438Z,99675.26
2019-03-30T22:47:00.533Z,99673.83
2019-03-30T22:49:31.651Z,99669.13
2019-03-30T22:52:02.829Z,99668.28
2019-03-30T22:54:33.990Z,99660.91
2019-03-30T22:57:05.338Z,99663.10
2019-03-30T22:59:36.549Z,99662.11
2019-03-30T23:02:08.264Z,99665.58
2019-03-30T23:04:39.828Z,99662.58
2019-03-30T23:07:11.080Z,99664.13
2019-03-30T23:09:42.302Z,99663.64
2019-03-30T23:12:13.564Z,99664.17
2019-03-30T23:14:44.801Z,99660.56
2019-03-30T23:17:16.058Z,99659.14
2019-03-30T23:19:47.285Z,99657.64
2019-03-30T23:22:18.635Z,99661.68
2019-03-30T23:24:49.774Z,99654.75
2019-03-30T23:27:20.910Z,99659.63
2019-03-30T23:29:52.114Z,99660.42
2019-03-30T23:32:23.320Z,99664.13
2019-03-30T23:34:54.520Z,99659.66
2019-03-30T23:37:25.805Z,99651.61
2019-03-30T23:39:57.184Z,99654.09
2019-03-30T23:42:28.396Z,99654.05
2019-03-30T23:44:59.638Z,99654.00
2019-03-30T23:47:30.863Z,99651.01
2019-03-30T23:50:01.919Z,99649.22
2019-03-30T23:52:33.074Z,99650.37
2019-03-30T23:55:04.329Z,99644.83
2019-03-30T23:57:35.588Z,99644.36
